Time,TemperatureF,DewpointF,PressureIn,WindDirection,WindDirectionDegrees,WindSpeedMPH,WindSpeedGustMPH,Humidity,HourlyPrecipIn,Conditions,Clouds,dailyrainin,SoftwareType,DateUTC
2013-07-03 00:02:00,72.5,44.8,29.89,South,172,0.0,0.0,37,0.00,,,0.00,meteohub,2013-07-03 07:02:00,
2013-07-03 00:07:00,72.3,44.6,29.89,South,172,0.0,0.0,37,0.00,,,0.00,meteohub,2013-07-03 07:07:00,
2013-07-03 00:12:00,72.5,44.8,29.89,SE,127,0.0,0.0,37,0.00,,,0.00,meteohub,2013-07-03 07:12:00,
2013-07-03 00:17:00,72.9,45.1,29.89,SE,129,0.0,0.0,37,0.00,,,0.00,meteohub,2013-07-03 07:17:00,
2013-07-03 00:22:00,72.7,45.0,29.89,SE,128,0.0,0.0,37,0.00,,,0.00,meteohub,2013-07-03 07:22:00,
2013-07-03 00:27:00,72.7,45.0,29.89,South,170,0.0,0.0,37,0.00,,,0.00,meteohub,2013-07-03 07:27:00,
2013-07-03 00:37:00,72.5,44.8,29.89,South,169,0.0,0.0,37,0.00,,,0.00,meteohub,2013-07-03 07:37:00,
2013-07-03 00:42:00,72.9,45.1,29.88,SE,136,0.0,0.0,37,0.00,,,0.00,meteohub,2013-07-03 07:42:00,
2013-07-03 00:52:00,72.7,45.0,29.88,SSE,160,0.0,0.0,37,0.00,,,0.00,meteohub,2013-07-03 07:52:00,
2013-07-03 00:57:00,72.9,45.1,29.88,SSE,160,0.0,0.0,37,0.00,,,0.00,meteohub,2013-07-03 07:57:00,
2013-07-03 01:02:00,72.9,45.1,29.88,SSE,160,0.0,0.0,37,0.00,,,0.00,meteohub,2013-07-03 08:02:00,
2013-07-03 01:07:00,72.7,45.7,29.87,SSE,163,0.0,0.0,38,0.00,,,0.00,meteohub,2013-07-03 08:07:00,
2013-07-03 01:12:00,72.7,45.0,29.87,SSE,162,0.0,0.0,37,0.00,,,0.00,meteohub,2013-07-03 08:12:00,
2013-07-03 01:17:00,72.7,45.0,29.87,East,91,0.0,0.0,37,0.00,,,0.00,meteohub,2013-07-03 08:17:00,
2013-07-03 01:22:00,73.2,45.3,29.87,South,172,0.0,0.0,37,0.00,,,0.00,meteohub,2013-07-03 08:22:00,
2013-07-03 01:27:00,73.0,45.1,29.86,South,172,0.0,0.0,37,0.00,,,0.00,meteohub,2013-07-03 08:27:00,
2013-07-03 01:32:00,72.9,45.1,29.86,South,169,0.0,0.0,37,0.00,,,0.00,meteohub,2013-07-03 08:32:00,
2013-07-03 01:37:00,72.7,45.0,29.86,WSW,250,0.0,0.0,37,0.00,,,0.00,meteohub,2013-07-03 08:37:00,
2013-07-03 01:47:00,72.7,45.0,29.86,WSW,250,0.0,0.0,37,0.00,,,0.00,meteohub,2013-07-03 08:47:00,
2013-07-03 01:52:00,73.0,45.1,29.86,ENE,76,0.0,0.0,37,0.00,,,0.00,meteohub,2013-07-03 08:52:00,
2013-07-03 01:57:00,73.6,45.7,29.86,South,188,0.0,0.0,37,0.00,,,0.00,meteohub,2013-07-03 08:57:00,
2013-07-03 02:02:00,73.9,44.6,29.86,ESE,117,0.0,0.0,35,0.00,,,0.00,meteohub,2013-07-03 09:02:00,
2013-07-03 02:07:00,74.1,44.8,29.85,South,174,0.0,0.0,35,0.00,,,0.00,meteohub,2013-07-03 09:07:00,
2013-07-03 02:12:00,73.9,45.3,29.85,ESE,121,0.0,0.0,36,0.00,,,0.00,meteohub,2013-07-03 09:12:00,
2013-07-03 02:17:00,73.9,44.6,29.85,ESE,121,0.0,0.0,35,0.00,,,0.00,meteohub,2013-07-03 09:17:00,
2013-07-03 02:22:00,73.9,45.3,29.85,ESE,122,0.0,0.0,36,0.00,,,0.00,meteohub,2013-07-03 09:22:00,
2013-07-03 02:27:00,73.8,45.1,29.85,SE,135,0.0,0.0,36,0.00,,,0.00,meteohub,2013-07-03 09:27:00,
2013-07-03 02:32:00,73.6,45.0,29.85,SE,135,0.0,0.0,36,0.00,,,0.00,meteohub,2013-07-03 09:32:00,
2013-07-03 02:37:00,73.6,45.0,29.85,SE,135,0.0,0.0,36,0.00,,,0.00,meteohub,2013-07-03 09:37:00,
2013-07-03 02:42:00,73.6,45.0,29.85,SE,135,0.0,0.0,36,0.00,,,0.00,meteohub,2013-07-03 09:42:00,
2013-07-03 02:47:00,73.9,44.6,29.85,SE,124,0.0,0.0,35,0.00,,,0.00,meteohub,2013-07-03 09:47:00,
2013-07-03 02:52:00,74.1,44.8,29.85,SE,134,0.0,0.0,35,0.00,,,0.00,meteohub,2013-07-03 09:52:00,
2013-07-03 02:57:00,74.5,45.0,29.85,SSE,151,0.0,0.0,35,0.00,,,0.00,meteohub,2013-07-03 09:57:00,
2013-07-03 03:02:00,74.3,45.0,29.85,SSE,151,0.0,0.0,35,0.00,,,0.00,meteohub,2013-07-03 10:02:00,
2013-07-03 03:07:00,74.3,45.0,29.85,SSE,150,0.0,0.0,35,0.00,,,0.00,meteohub,2013-07-03 10:07:00,
2013-07-03 03:12:00,74.3,45.0,29.85,SSE,150,0.0,0.0,35,0.00,,,0.00,meteohub,2013-07-03 10:12:00,
2013-07-03 03:17:00,74.1,44.8,29.84,SSE,153,0.0,0.0,35,0.00,,,0.00,meteohub,2013-07-03 10:17:00,
2013-07-03 03:22:00,74.1,43.9,29.84,SSE,150,0.0,0.0,34,0.00,,,0.00,meteohub,2013-07-03 10:22:00,
2013-07-03 03:27:00,74.5,44.2,29.85,SSE,152,0.0,0.0,34,0.00,,,0.00,meteohub,2013-07-03 10:27:00,
2013-07-03 03:32:00,74.8,44.6,29.84,SSE,150,0.0,0.0,34,0.00,,,0.00,meteohub,2013-07-03 10:32:00,
2013-07-03 03:37:00,74.8,44.6,29.84,SSE,149,0.0,0.0,34,0.00,,,0.00,meteohub,2013-07-03 10:37:00,
2013-07-03 03:42:00,75.0,44.8,29.84,SE,127,0.0,0.0,34,0.00,,,0.00,meteohub,2013-07-03 10:42:00,
2013-07-03 03:52:00,75.4,44.2,29.84,SE,129,0.0,0.0,33,0.00,,,0.00,meteohub,2013-07-03 10:52:00,
2013-07-03 03:57:00,75.0,43.9,29.84,SE,128,0.0,0.0,33,0.00,,,0.00,meteohub,2013-07-03 10:57:00,
2013-07-03 04:02:00,75.4,44.2,29.84,SE,127,0.0,0.0,33,0.00,,,0.00,meteohub,2013-07-03 11:02:00,
2013-07-03 04:07:00,75.7,44.6,29.84,SE,124,0.0,0.0,33,0.00,,,0.00,meteohub,2013-07-03 11:07:00,
2013-07-03 04:17:00,75.6,44.4,29.84,SE,124,0.0,0.0,33,0.00,,,0.00,meteohub,2013-07-03 11:17:00,
2013-07-03 04:22:00,75.6,44.4,29.84,SE,124,0.0,0.0,33,0.00,,,0.00,meteohub,2013-07-03 11:22:00,
2013-07-03 04:27:00,75.2,44.1,29.84,SE,124,0.0,0.0,33,0.00,,,0.00,meteohub,2013-07-03 11:27:00,
2013-07-03 04:32:00,75.2,44.1,29.83,SE,124,0.0,0.0,33,0.00,,,0.00,meteohub,2013-07-03 11:32:00,
2013-07-03 04:37:00,75.4,44.2,29.83,SE,124,0.0,0.0,33,0.00,,,0.00,meteohub,2013-07-03 11:37:00,
2013-07-03 04:42:00,75.0,44.8,29.83,SSE,155,0.0,0.0,34,0.00,,,0.00,meteohub,2013-07-03 11:42:00,
2013-07-03 04:52:00,74.7,43.7,29.83,SSE,155,0.0,0.0,33,0.00,,,0.00,meteohub,2013-07-03 11:52:00,
2013-07-03 04:57:00,74.7,44.4,29.83,SSE,155,0.0,0.0,34,0.00,,,0.00,meteohub,2013-07-03 11:57:00,
2013-07-03 05:02:00,74.5,44.2,29.83,SSE,155,0.0,0.0,34,0.00,,,0.00,meteohub,2013-07-03 12:02:00,
2013-07-03 05:07:00,74.5,43.5,29.84,SSE,165,0.0,0.0,33,0.00,,,0.00,meteohub,2013-07-03 12:07:00,
2013-07-03 05:12:00,74.1,43.9,29.84,SSE,165,0.0,0.0,34,0.00,,,0.00,meteohub,2013-07-03 12:12:00,
2013-07-03 05:22:00,74.8,43.9,29.84,ESE,117,0.0,0.0,33,0.00,,,0.00,meteohub,2013-07-03 12:22:00,
2013-07-03 05:27:00,74.7,43.7,29.84,ESE,117,0.0,0.0,33,0.00,,,0.00,meteohub,2013-07-03 12:27:00,
2013-07-03 05:32:00,74.8,43.9,29.84,ESE,117,0.0,0.0,33,0.00,,,0.00,meteohub,2013-07-03 12:32:00,
2013-07-03 05:42:00,75.0,43.9,29.84,SSW,192,0.0,0.0,33,0.00,,,0.00,meteohub,2013-07-03 12:42:00,
2013-07-03 05:47:00,74.8,43.9,29.84,South,191,0.0,0.0,33,0.00,,,0.00,meteohub,2013-07-03 12:47:00,
2013-07-03 05:52:00,74.8,43.9,29.84,South,191,0.0,0.0,33,0.00,,,0.00,meteohub,2013-07-03 12:52:00,
2013-07-03 06:02:00,74.8,44.6,29.83,West,267,0.0,0.0,34,0.00,,,0.00,meteohub,2013-07-03 13:02:00,
2013-07-03 06:12:00,74.5,45.0,29.82,SSW,207,0.0,0.0,35,0.00,,,0.00,meteohub,2013-07-03 13:12:00,
2013-07-03 06:17:00,74.3,44.1,29.83,SSE,166,0.0,0.0,34,0.00,,,0.00,meteohub,2013-07-03 13:17:00,
2013-07-03 06:22:00,74.5,44.2,29.84,East,94,2.0,0.0,34,0.00,,,0.00,meteohub,2013-07-03 13:22:00,
2013-07-03 06:27:00,74.7,44.4,29.84,SSW,213,0.0,4.0,34,0.00,,,0.00,meteohub,2013-07-03 13:27:00,
2013-07-03 06:37:00,74.1,45.5,29.83,SW,233,0.0,4.0,36,0.00,,,0.00,meteohub,2013-07-03 13:37:00,
2013-07-03 06:42:00,73.8,44.4,29.84,SSE,160,0.0,0.0,35,0.00,,,0.00,meteohub,2013-07-03 13:42:00,
2013-07-03 06:47:00,73.9,46.8,29.84,SSW,211,0.0,0.0,38,0.00,,,0.00,meteohub,2013-07-03 13:47:00,
2013-07-03 06:57:00,73.8,45.9,29.83,SSW,211,0.0,0.0,37,0.00,,,0.00,meteohub,2013-07-03 13:57:00,
2013-07-03 07:02:00,73.8,46.6,29.84,SSW,211,0.0,0.0,38,0.00,,,0.00,meteohub,2013-07-03 14:02:00,
2013-07-03 07:07:00,73.8,46.6,29.84,SSW,211,0.0,0.0,38,0.00,,,0.00,meteohub,2013-07-03 14:07:00,
2013-07-03 07:12:00,73.8,46.6,29.84,SSW,211,0.0,0.0,38,0.00,,,0.00,meteohub,2013-07-03 14:12:00,
2013-07-03 07:22:00,74.1,46.2,29.84,SSW,211,0.0,0.0,37,0.00,,,0.00,meteohub,2013-07-03 14:22:00,
2013-07-03 07:27:00,74.1,46.9,29.84,SSW,210,0.0,0.0,38,0.00,,,0.00,meteohub,2013-07-03 14:27:00,
2013-07-03 07:32:00,74.1,46.2,29.85,SSW,211,0.0,0.0,37,0.00,,,0.00,meteohub,2013-07-03 14:32:00,
2013-07-03 07:37:00,74.1,46.9,29.85,SSW,211,0.0,0.0,38,0.00,,,0.00,meteohub,2013-07-03 14:37:00,
2013-07-03 07:42:00,74.5,45.9,29.85,SE,136,0.0,0.0,36,0.00,,,0.00,meteohub,2013-07-03 14:42:00,
2013-07-03 07:47:00,74.5,47.8,29.85,SSE,160,0.0,0.0,39,0.00,,,0.00,meteohub,2013-07-03 14:47:00,
2013-07-03 07:52:00,74.7,46.6,29.86,SSE,160,0.0,0.0,37,0.00,,,0.00,meteohub,2013-07-03 14:52:00,
2013-07-03 07:57:00,74.7,46.6,29.86,SSE,147,0.0,0.0,37,0.00,,,0.00,meteohub,2013-07-03 14:57:00,
2013-07-03 08:02:00,74.7,47.3,29.86,SSE,160,0.0,0.0,38,0.00,,,0.00,meteohub,2013-07-03 15:02:00,
2013-07-03 08:07:00,74.8,46.0,29.86,SE,133,1.0,0.0,36,0.00,,,0.00,meteohub,2013-07-03 15:07:00,
2013-07-03 08:17:00,75.2,46.4,29.87,East,92,8.0,8.0,36,0.00,,,0.00,meteohub,2013-07-03 15:17:00,
2013-07-03 08:22:00,75.4,45.9,29.87,South,169,2.0,9.0,35,0.00,,,0.00,meteohub,2013-07-03 15:22:00,
2013-07-03 08:32:00,75.2,47.8,29.86,SW,214,1.0,9.0,38,0.00,,,0.00,meteohub,2013-07-03 15:32:00,
2013-07-03 08:37:00,75.0,46.9,29.86,South,170,0.0,5.0,37,0.00,,,0.00,meteohub,2013-07-03 15:37:00,
2013-07-03 08:47:00,75.6,46.0,29.85,WNW,293,3.0,7.0,35,0.00,,,0.00,meteohub,2013-07-03 15:47:00,
2013-07-03 08:52:00,75.4,45.9,29.85,SE,139,3.0,7.0,35,0.00,,,0.00,meteohub,2013-07-03 15:52:00,
2013-07-03 09:02:00,75.4,45.9,29.85,WSW,243,0.0,8.0,35,0.00,,,0.00,meteohub,2013-07-03 16:02:00,
2013-07-03 09:07:00,75.6,46.0,29.85,ESE,108,1.0,8.0,35,0.00,,,0.00,meteohub,2013-07-03 16:07:00,
2013-07-03 09:12:00,75.6,46.8,29.84,ESE,111,4.0,7.0,36,0.00,,,0.00,meteohub,2013-07-03 16:12:00,
2013-07-03 09:17:00,75.7,46.9,29.84,SSE,149,5.0,5.0,36,0.00,,,0.00,meteohub,2013-07-03 16:17:00,
2013-07-03 09:22:00,75.9,47.1,29.84,East,82,5.0,7.0,36,0.00,,,0.00,meteohub,2013-07-03 16:22:00,
2013-07-03 09:27:00,75.9,47.1,29.85,SSE,156,5.0,14.0,36,0.00,,,0.00,meteohub,2013-07-03 16:27:00,
2013-07-03 09:32:00,75.7,47.7,29.85,SE,141,6.0,14.0,37,0.00,,,0.00,meteohub,2013-07-03 16:32:00,
2013-07-03 09:42:00,76.5,48.2,29.85,SE,124,2.0,11.0,37,0.00,,,0.00,meteohub,2013-07-03 16:42:00,
2013-07-03 09:52:00,79.3,48.6,29.85,East,91,4.0,7.0,34,0.00,,,0.00,meteohub,2013-07-03 16:52:00,
2013-07-03 09:57:00,79.9,48.2,29.85,ESE,110,4.0,7.0,33,0.00,,,0.00,meteohub,2013-07-03 16:57:00,
2013-07-03 10:02:00,80.1,47.5,29.85,SE,128,3.0,7.0,32,0.00,,,0.00,meteohub,2013-07-03 17:02:00,
2013-07-03 10:07:00,80.4,48.7,29.85,ESE,114,1.0,5.0,33,0.00,,,0.00,meteohub,2013-07-03 17:07:00,
2013-07-03 10:12:00,81.1,50.2,29.85,SE,141,0.0,5.0,34,0.00,,,0.00,meteohub,2013-07-03 17:12:00,
2013-07-03 10:22:00,83.1,49.3,29.85,ESE,116,1.0,4.0,31,0.00,,,0.00,meteohub,2013-07-03 17:22:00,
2013-07-03 10:27:00,83.1,49.3,29.85,ESE,106,1.0,4.0,31,0.00,,,0.00,meteohub,2013-07-03 17:27:00,
2013-07-03 10:32:00,83.1,50.2,29.85,West,273,0.0,4.0,32,0.00,,,0.00,meteohub,2013-07-03 17:32:00,
2013-07-03 10:37:00,82.9,48.4,29.85,ESE,116,0.0,3.0,30,0.00,,,0.00,meteohub,2013-07-03 17:37:00,
2013-07-03 10:42:00,82.6,49.8,29.85,East,98,0.0,3.0,32,0.00,,,0.00,meteohub,2013-07-03 17:42:00,
2013-07-03 10:47:00,82.6,52.2,29.85,ESE,107,0.0,3.0,35,0.00,,,0.00,meteohub,2013-07-03 17:47:00,
2013-07-03 10:52:00,82.9,49.3,29.86,SE,130,0.0,3.0,31,0.00,,,0.00,meteohub,2013-07-03 17:52:00,
2013-07-03 10:57:00,83.5,52.2,29.86,SE,129,0.0,1.0,34,0.00,,,0.00,meteohub,2013-07-03 17:57:00,
2013-07-03 11:07:00,85.5,51.4,29.86,West,264,0.0,0.0,31,0.00,,,0.00,meteohub,2013-07-03 18:07:00,
2013-07-03 11:12:00,85.8,50.7,29.86,WNW,290,3.0,0.0,30,0.00,,,0.00,meteohub,2013-07-03 18:12:00,
2013-07-03 11:17:00,85.6,47.8,29.86,WNW,294,4.0,5.0,27,0.00,,,0.00,meteohub,2013-07-03 18:17:00,
2013-07-03 11:22:00,86.2,49.3,29.85,East,94,4.0,5.0,28,0.00,,,0.00,meteohub,2013-07-03 18:22:00,
2013-07-03 11:27:00,86.9,46.8,29.85,NNW,338,2.0,6.0,25,0.00,,,0.00,meteohub,2013-07-03 18:27:00,
2013-07-03 11:32:00,87.4,49.3,29.85,NNE,21,0.0,6.0,27,0.00,,,0.00,meteohub,2013-07-03 18:32:00,
2013-07-03 11:37:00,89.1,47.7,29.84,North,11,0.0,6.0,24,0.00,,,0.00,meteohub,2013-07-03 18:37:00,
2013-07-03 11:42:00,87.4,48.4,29.84,West,271,3.0,8.0,26,0.00,,,0.00,meteohub,2013-07-03 18:42:00,
2013-07-03 11:47:00,87.3,47.1,29.84,NE,44,0.0,8.0,25,0.00,,,0.00,meteohub,2013-07-03 18:47:00,
2013-07-03 11:52:00,87.4,46.2,29.84,SSE,164,0.0,8.0,24,0.00,,,0.00,meteohub,2013-07-03 18:52:00,
2013-07-03 11:57:00,88.3,45.9,29.84,NNW,330,0.0,4.0,23,0.00,,,0.00,meteohub,2013-07-03 18:57:00,
2013-07-03 12:02:00,88.5,49.3,29.83,SE,130,5.0,5.0,26,0.00,,,0.00,meteohub,2013-07-03 19:02:00,
2013-07-03 12:07:00,87.1,52.7,29.83,SE,126,3.0,6.0,31,0.00,,,0.00,meteohub,2013-07-03 19:07:00,
2013-07-03 12:12:00,86.7,53.4,29.83,SSW,204,4.0,6.0,32,0.00,,,0.00,meteohub,2013-07-03 19:12:00,
2013-07-03 12:22:00,86.5,53.2,29.83,East,91,6.0,6.0,32,0.00,,,0.00,meteohub,2013-07-03 19:22:00,
2013-07-03 12:27:00,86.2,53.8,29.83,ESE,102,2.0,7.0,33,0.00,,,0.00,meteohub,2013-07-03 19:27:00,
2013-07-03 12:32:00,86.5,53.2,29.83,SE,127,2.0,7.0,32,0.00,,,0.00,meteohub,2013-07-03 19:32:00,
2013-07-03 12:37:00,86.4,53.8,29.83,ESE,118,1.0,7.0,33,0.00,,,0.00,meteohub,2013-07-03 19:37:00,
2013-07-03 12:42:00,86.5,52.3,29.83,ESE,118,6.0,6.0,31,0.00,,,0.00,meteohub,2013-07-03 19:42:00,
2013-07-03 12:47:00,85.6,53.2,29.82,East,99,1.0,8.0,33,0.00,,,0.00,meteohub,2013-07-03 19:47:00,
2013-07-03 12:52:00,85.5,52.2,29.82,ESE,121,3.0,8.0,32,0.00,,,0.00,meteohub,2013-07-03 19:52:00,
2013-07-03 12:57:00,85.8,52.5,29.82,SE,124,4.0,8.0,32,0.00,,,0.00,meteohub,2013-07-03 19:57:00,
2013-07-03 13:02:00,85.5,50.5,29.81,East,84,3.0,6.0,30,0.00,,,0.00,meteohub,2013-07-03 20:02:00,
2013-07-03 13:12:00,86.4,53.8,29.81,ESE,116,4.0,7.0,33,0.00,,,0.00,meteohub,2013-07-03 20:12:00,
2013-07-03 13:17:00,86.2,52.0,29.81,West,277,1.0,7.0,31,0.00,,,0.00,meteohub,2013-07-03 20:17:00,
2013-07-03 13:22:00,86.4,51.3,29.81,East,79,2.0,7.0,30,0.00,,,0.00,meteohub,2013-07-03 20:22:00,
2013-07-03 13:27:00,86.2,52.0,29.81,SE,124,2.0,7.0,31,0.00,,,0.00,meteohub,2013-07-03 20:27:00,
2013-07-03 13:32:00,86.5,51.4,29.81,ESE,108,1.0,7.0,30,0.00,,,0.00,meteohub,2013-07-03 20:32:00,
2013-07-03 13:37:00,86.2,51.1,29.81,East,91,3.0,7.0,30,0.00,,,0.00,meteohub,2013-07-03 20:37:00,
2013-07-03 13:42:00,85.6,50.7,29.81,SE,130,3.0,8.0,30,0.00,,,0.00,meteohub,2013-07-03 20:42:00,
2013-07-03 13:47:00,85.8,51.6,29.81,SSW,200,1.0,8.0,31,0.00,,,0.00,meteohub,2013-07-03 20:47:00,
2013-07-03 13:52:00,86.0,50.9,29.80,SE,133,4.0,8.0,30,0.00,,,0.00,meteohub,2013-07-03 20:52:00,
2013-07-03 13:57:00,85.3,52.2,29.80,SSE,167,5.0,7.0,32,0.00,,,0.00,meteohub,2013-07-03 20:57:00,
2013-07-03 14:02:00,85.8,50.7,29.80,ESE,116,1.0,6.0,30,0.00,,,0.00,meteohub,2013-07-03 21:02:00,
2013-07-03 14:07:00,86.5,51.4,29.80,East,96,2.0,6.0,30,0.00,,,0.00,meteohub,2013-07-03 21:07:00,
2013-07-03 14:12:00,85.8,51.6,29.80,SE,127,3.0,6.0,31,0.00,,,0.00,meteohub,2013-07-03 21:12:00,
2013-07-03 14:17:00,85.8,50.7,29.80,ENE,75,2.0,7.0,30,0.00,,,0.00,meteohub,2013-07-03 21:17:00,
2013-07-03 14:22:00,86.0,51.8,29.80,East,98,4.0,7.0,31,0.00,,,0.00,meteohub,2013-07-03 21:22:00,
2013-07-03 14:27:00,84.9,51.8,29.80,SE,145,2.0,8.0,32,0.00,,,0.00,meteohub,2013-07-03 21:27:00,
2013-07-03 14:37:00,84.4,52.2,29.80,SE,134,2.0,9.0,33,0.00,,,0.00,meteohub,2013-07-03 21:37:00,
2013-07-03 14:42:00,84.2,52.0,29.79,South,185,2.0,9.0,33,0.00,,,0.00,meteohub,2013-07-03 21:42:00,
2013-07-03 14:47:00,83.8,52.5,29.79,SSW,205,3.0,9.0,34,0.00,,,0.00,meteohub,2013-07-03 21:47:00,
2013-07-03 14:52:00,83.3,52.9,29.79,SE,136,3.0,9.0,35,0.00,,,0.00,meteohub,2013-07-03 21:52:00,
2013-07-03 15:02:00,82.9,52.5,29.79,South,177,3.0,11.0,35,0.00,,,0.00,meteohub,2013-07-03 22:02:00,
2013-07-03 15:07:00,82.2,52.5,29.79,ESE,111,3.0,11.0,36,0.00,,,0.00,meteohub,2013-07-03 22:07:00,
2013-07-03 15:12:00,82.4,52.0,29.79,SE,145,9.0,14.0,35,0.00,,,0.00,meteohub,2013-07-03 22:12:00,
2013-07-03 15:22:00,82.6,52.2,29.78,South,188,2.0,12.0,35,0.00,,,0.00,meteohub,2013-07-03 22:22:00,
2013-07-03 15:27:00,82.2,51.8,29.78,SE,132,6.0,12.0,35,0.00,,,0.00,meteohub,2013-07-03 22:27:00,
2013-07-03 15:32:00,81.9,52.3,29.78,NE,49,4.0,12.0,36,0.00,,,0.00,meteohub,2013-07-03 22:32:00,
2013-07-03 15:37:00,82.0,52.5,29.78,SSE,159,7.0,12.0,36,0.00,,,0.00,meteohub,2013-07-03 22:37:00,
2013-07-03 15:42:00,81.7,52.2,29.78,SE,146,2.0,12.0,36,0.00,,,0.00,meteohub,2013-07-03 22:42:00,
2013-07-03 15:47:00,81.7,52.9,29.77,SSE,167,2.0,12.0,37,0.00,,,0.00,meteohub,2013-07-03 22:47:00,
2013-07-03 15:57:00,81.5,52.7,29.77,ESE,116,6.0,14.0,37,0.00,,,0.00,meteohub,2013-07-03 22:57:00,
2013-07-03 16:02:00,81.0,52.9,29.77,SSW,194,3.0,14.0,38,0.00,,,0.00,meteohub,2013-07-03 23:02:00,
2013-07-03 16:07:00,81.0,52.2,29.77,South,183,6.0,14.0,37,0.00,,,0.00,meteohub,2013-07-03 23:07:00,
2013-07-03 16:17:00,80.8,52.9,29.76,SE,124,7.0,14.0,38,0.00,,,0.00,meteohub,2013-07-03 23:17:00,
2013-07-03 16:22:00,80.8,52.9,29.76,SSE,162,8.0,14.0,38,0.00,,,0.00,meteohub,2013-07-03 23:22:00,
2013-07-03 16:27:00,80.8,53.6,29.76,SE,133,3.0,12.0,39,0.00,,,0.00,meteohub,2013-07-03 23:27:00,
2013-07-03 16:32:00,80.2,53.1,29.75,SE,128,7.0,12.0,39,0.00,,,0.00,meteohub,2013-07-03 23:32:00,
2013-07-03 16:37:00,79.7,52.5,29.75,SE,146,3.0,12.0,39,0.00,,,0.00,meteohub,2013-07-03 23:37:00,
2013-07-03 16:42:00,79.3,52.9,29.75,SE,129,5.0,13.0,40,0.00,,,0.00,meteohub,2013-07-03 23:42:00,
2013-07-03 16:47:00,79.2,52.7,29.75,SW,219,3.0,14.0,40,0.00,,,0.00,meteohub,2013-07-03 23:47:00,
2013-07-03 16:52:00,79.0,52.5,29.75,SE,143,8.0,14.0,40,0.00,,,0.00,meteohub,2013-07-03 23:52:00,
2013-07-03 16:57:00,78.6,52.3,29.75,SW,231,6.0,14.0,40,0.00,,,0.00,meteohub,2013-07-03 23:57:00,
2013-07-03 17:02:00,78.3,52.0,29.75,SSE,149,6.0,13.0,40,0.00,,,0.00,meteohub,2013-07-04 00:02:00,
2013-07-03 17:12:00,77.7,51.4,29.75,SE,146,6.0,14.0,40,0.00,,,0.00,meteohub,2013-07-04 00:12:00,
2013-07-03 17:17:00,77.5,52.0,29.75,South,180,2.0,14.0,41,0.00,,,0.00,meteohub,2013-07-04 00:17:00,
2013-07-03 17:22:00,77.4,51.8,29.75,SSW,206,11.0,14.0,41,0.00,,,0.00,meteohub,2013-07-04 00:22:00,
2013-07-03 17:27:00,77.2,51.6,29.74,SE,128,2.0,14.0,41,0.00,,,0.00,meteohub,2013-07-04 00:27:00,
2013-07-03 17:32:00,77.2,52.3,29.74,ESE,121,4.0,14.0,42,0.00,,,0.00,meteohub,2013-07-04 00:32:00,
2013-07-03 17:37:00,77.0,52.9,29.74,SE,146,4.0,13.0,43,0.00,,,0.00,meteohub,2013-07-04 00:37:00,
2013-07-03 17:42:00,76.8,53.2,29.74,SSE,156,2.0,13.0,44,0.00,,,0.00,meteohub,2013-07-04 00:42:00,
2013-07-03 17:47:00,76.6,53.8,29.73,ESE,108,5.0,13.0,45,0.00,,,0.00,meteohub,2013-07-04 00:47:00,
2013-07-03 17:52:00,76.5,53.6,29.74,SSE,166,9.0,14.0,45,0.00,,,0.00,meteohub,2013-07-04 00:52:00,
2013-07-03 17:57:00,76.1,53.8,29.73,SE,134,5.0,14.0,46,0.00,,,0.00,meteohub,2013-07-04 00:57:00,
2013-07-03 18:02:00,75.7,54.1,29.73,ENE,78,5.0,15.0,47,0.00,,,0.00,meteohub,2013-07-04 01:02:00,
2013-07-03 18:07:00,75.6,54.0,29.73,SSE,162,12.0,15.0,47,0.00,,,0.00,meteohub,2013-07-04 01:07:00,
2013-07-03 18:12:00,75.2,54.1,29.73,South,173,4.0,15.0,48,0.00,,,0.00,meteohub,2013-07-04 01:12:00,
2013-07-03 18:17:00,75.0,54.0,29.73,SE,138,2.0,13.0,48,0.00,,,0.00,meteohub,2013-07-04 01:17:00,
2013-07-03 18:27:00,74.5,54.1,29.73,SE,135,9.0,13.0,49,0.00,,,0.00,meteohub,2013-07-04 01:27:00,
2013-07-03 18:32:00,74.1,54.3,29.73,ESE,121,4.0,12.0,50,0.00,,,0.00,meteohub,2013-07-04 01:32:00,
2013-07-03 18:37:00,73.9,53.6,29.73,ESE,117,5.0,13.0,49,0.00,,,0.00,meteohub,2013-07-04 01:37:00,
2013-07-03 18:42:00,73.9,52.5,29.73,ESE,117,4.0,13.0,47,0.00,,,0.00,meteohub,2013-07-04 01:42:00,
2013-07-03 18:52:00,73.6,53.2,29.73,East,84,4.0,13.0,49,0.00,,,0.00,meteohub,2013-07-04 01:52:00,
2013-07-03 18:57:00,73.2,54.0,29.74,South,183,3.0,13.0,51,0.00,,,0.00,meteohub,2013-07-04 01:57:00,
2013-07-03 19:02:00,73.0,53.2,29.74,SE,130,4.0,13.0,50,0.00,,,0.00,meteohub,2013-07-04 02:02:00,
2013-07-03 19:07:00,73.2,51.8,29.74,East,93,6.0,11.0,47,0.00,,,0.00,meteohub,2013-07-04 02:07:00,
2013-07-03 19:12:00,73.6,51.4,29.74,SE,133,4.0,11.0,46,0.00,,,0.00,meteohub,2013-07-04 02:12:00,
2013-07-03 19:22:00,74.1,50.9,29.75,South,190,4.0,11.0,44,0.00,,,0.00,meteohub,2013-07-04 02:22:00,
2013-07-03 19:27:00,74.1,51.4,29.75,South,186,4.0,14.0,45,0.00,,,0.00,meteohub,2013-07-04 02:27:00,
2013-07-03 19:37:00,73.6,52.7,29.75,East,79,6.0,14.0,48,0.00,,,0.00,meteohub,2013-07-04 02:37:00,
2013-07-03 19:42:00,73.4,52.0,29.75,ENE,77,4.0,10.0,47,0.00,,,0.00,meteohub,2013-07-04 02:42:00,
2013-07-03 19:47:00,73.4,52.0,29.75,East,100,9.0,10.0,47,0.00,,,0.00,meteohub,2013-07-04 02:47:00,
2013-07-03 19:52:00,73.2,50.5,29.75,ESE,110,4.0,13.0,45,0.00,,,0.00,meteohub,2013-07-04 02:52:00,
2013-07-03 20:02:00,73.9,48.0,29.75,SSE,166,3.0,13.0,40,0.00,,,0.00,meteohub,2013-07-04 03:02:00,
2013-07-03 20:07:00,74.1,46.9,29.75,ESE,120,5.0,12.0,38,0.00,,,0.00,meteohub,2013-07-04 03:07:00,
2013-07-03 20:17:00,74.7,47.3,29.75,ESE,107,3.0,12.0,38,0.00,,,0.00,meteohub,2013-07-04 03:17:00,
2013-07-03 20:27:00,74.5,47.1,29.75,SSE,167,2.0,13.0,38,0.00,,,0.00,meteohub,2013-07-04 03:27:00,
2013-07-03 20:32:00,74.7,46.6,29.75,ESE,121,4.0,13.0,37,0.00,,,0.00,meteohub,2013-07-04 03:32:00,
2013-07-03 20:42:00,74.7,47.3,29.75,WSW,252,3.0,11.0,38,0.00,,,0.00,meteohub,2013-07-04 03:42:00,
2013-07-03 20:47:00,74.7,46.6,29.75,SSW,198,3.0,9.0,37,0.00,,,0.00,meteohub,2013-07-04 03:47:00,
2013-07-03 20:52:00,74.7,46.6,29.75,SE,125,3.0,11.0,37,0.00,,,0.00,meteohub,2013-07-04 03:52:00,
2013-07-03 20:57:00,74.7,46.6,29.75,ESE,117,4.0,11.0,37,0.00,,,0.00,meteohub,2013-07-04 03:57:00,
2013-07-03 21:02:00,74.8,46.8,29.75,SSW,197,3.0,13.0,37,0.00,,,0.00,meteohub,2013-07-04 04:02:00,
2013-07-03 21:07:00,74.7,46.6,29.75,SSW,211,2.0,13.0,37,0.00,,,0.00,meteohub,2013-07-04 04:07:00,
2013-07-03 21:12:00,74.5,46.6,29.75,SSE,156,2.0,13.0,37,0.00,,,0.00,meteohub,2013-07-04 04:12:00,
2013-07-03 21:17:00,74.3,46.4,29.75,SSE,165,3.0,12.0,37,0.00,,,0.00,meteohub,2013-07-04 04:17:00,
2013-07-03 21:22:00,74.1,46.9,29.75,ENE,78,0.0,9.0,38,0.00,,,0.00,meteohub,2013-07-04 04:22:00,
2013-07-03 21:27:00,73.8,46.6,29.76,ESE,114,2.0,8.0,38,0.00,,,0.00,meteohub,2013-07-04 04:27:00,
2013-07-03 21:32:00,73.6,47.1,29.76,WSW,240,2.0,8.0,39,0.00,,,0.00,meteohub,2013-07-04 04:32:00,
2013-07-03 21:37:00,73.2,46.8,29.76,SE,146,2.0,9.0,39,0.00,,,0.00,meteohub,2013-07-04 04:37:00,
2013-07-03 21:42:00,73.4,46.2,29.76,South,188,5.0,9.0,38,0.00,,,0.00,meteohub,2013-07-04 04:42:00,
2013-07-03 21:47:00,73.4,46.9,29.76,West,269,1.0,9.0,39,0.00,,,0.00,meteohub,2013-07-04 04:47:00,
2013-07-03 21:52:00,73.2,46.8,29.76,SE,136,3.0,7.0,39,0.00,,,0.00,meteohub,2013-07-04 04:52:00,
2013-07-03 21:57:00,73.6,46.4,29.76,SE,134,4.0,7.0,38,0.00,,,0.00,meteohub,2013-07-04 04:57:00,
2013-07-03 22:02:00,73.6,46.4,29.76,SW,232,7.0,9.0,38,0.00,,,0.00,meteohub,2013-07-04 05:02:00,
2013-07-03 22:07:00,73.9,46.0,29.76,SE,138,6.0,9.0,37,0.00,,,0.00,meteohub,2013-07-04 05:07:00,
2013-07-03 22:12:00,73.9,46.0,29.77,SE,129,1.0,9.0,37,0.00,,,0.00,meteohub,2013-07-04 05:12:00,
2013-07-03 22:17:00,74.1,45.5,29.77,SE,136,3.0,7.0,36,0.00,,,0.00,meteohub,2013-07-04 05:17:00,
2013-07-03 22:22:00,74.5,45.9,29.77,SSE,167,4.0,6.0,36,0.00,,,0.00,meteohub,2013-07-04 05:22:00,
2013-07-03 22:27:00,74.5,45.0,29.77,SE,135,3.0,6.0,35,0.00,,,0.00,meteohub,2013-07-04 05:27:00,
2013-07-03 22:32:00,74.5,45.0,29.77,NE,50,0.0,7.0,35,0.00,,,0.00,meteohub,2013-07-04 05:32:00,
2013-07-03 22:37:00,74.5,45.0,29.77,ESE,104,3.0,7.0,35,0.00,,,0.00,meteohub,2013-07-04 05:37:00,
2013-07-03 22:42:00,74.5,45.0,29.77,ESE,118,0.0,7.0,35,0.00,,,0.00,meteohub,2013-07-04 05:42:00,
2013-07-03 22:47:00,74.5,44.2,29.77,ESE,117,2.0,6.0,34,0.00,,,0.00,meteohub,2013-07-04 05:47:00,
2013-07-03 22:52:00,74.7,44.4,29.77,SSE,158,3.0,5.0,34,0.00,,,0.00,meteohub,2013-07-04 05:52:00,
2013-07-03 22:57:00,75.0,44.8,29.77,SSE,159,2.0,7.0,34,0.00,,,0.00,meteohub,2013-07-04 05:57:00,
2013-07-03 23:02:00,75.0,44.8,29.77,SSE,160,6.0,7.0,34,0.00,,,0.00,meteohub,2013-07-04 06:02:00,
2013-07-03 23:07:00,75.0,44.8,29.77,SE,132,2.0,7.0,34,0.00,,,0.00,meteohub,2013-07-04 06:07:00,
2013-07-03 23:12:00,75.0,43.9,29.77,SE,124,1.0,7.0,33,0.00,,,0.00,meteohub,2013-07-04 06:12:00,
2013-07-03 23:17:00,75.0,44.8,29.77,ESE,121,2.0,7.0,34,0.00,,,0.00,meteohub,2013-07-04 06:17:00,
2013-07-03 23:22:00,75.0,44.8,29.77,ESE,118,4.0,6.0,34,0.00,,,0.00,meteohub,2013-07-04 06:22:00,
2013-07-03 23:27:00,74.8,44.6,29.77,South,179,2.0,6.0,34,0.00,,,0.00,meteohub,2013-07-04 06:27:00,
2013-07-03 23:32:00,75.0,44.8,29.77,SE,127,1.0,7.0,34,0.00,,,0.00,meteohub,2013-07-04 06:32:00,
2013-07-03 23:37:00,74.8,44.6,29.77,SE,138,2.0,7.0,34,0.00,,,0.00,meteohub,2013-07-04 06:37:00,
2013-07-03 23:42:00,75.0,44.8,29.77,SE,136,1.0,7.0,34,0.00,,,0.00,meteohub,2013-07-04 06:42:00,
2013-07-03 23:47:00,74.8,43.9,29.76,SSE,150,2.0,5.0,33,0.00,,,0.00,meteohub,2013-07-04 06:47:00,
2013-07-03 23:52:00,74.8,43.9,29.76,SSW,195,0.0,5.0,33,0.00,,,0.00,meteohub,2013-07-04 06:52:00,
2013-07-03 23:57:00,74.8,43.9,29.76,SE,141,2.0,5.0,33,0.00,,,0.00,meteohub,2013-07-04 06:57:00,